Time;durP1;ratioP1;P1;durP2;ratioP2;P2;SDS_P1;SDS_P2;PMS_P1;PMS_P2;Temp;Humidity;BMP_temperature;BMP_pressure;BME280_temperature;BME280_humidity;BME280_pressure;Samples;Min_cycle;Max_cycle;Signal;HPM_P1;HPM_P2
2022/06/22 00:00:28;;;;;;;;;5.00;4.50;;;;;;;;5101877;27;51112;-59
2022/06/22 00:03:12;;;;;;;;;5.00;5.00;;;;;;;;5085037;27;51018;-58
2022/06/22 00:05:57;;;;;;;;;5.00;4.00;;;;;;;;5102325;27;51319;-58
2022/06/22 00:08:46;;;;;;;;;6.00;6.00;;;;;;;;5101872;27;51123;-59
2022/06/22 00:11:30;;;;;;;;;5.75;5.75;;;;;;;;5102139;27;51107;-58
2022/06/22 00:14:17;;;;;;;;;8.00;7.00;;;;;;;;5101440;27;51547;-58
2022/06/22 00:17:02;;;;;;;;;5.00;5.00;;;;;;;;5101450;27;51128;-58
2022/06/22 00:19:47;;;;;;;;;8.50;5.50;;;;;;;;5101501;27;51142;-59
2022/06/22 00:22:45;;;;;;;;;5.25;5.00;;;;;;;;5101620;27;51031;-58
2022/06/22 00:25:32;;;;;;;;;4.00;4.00;;;;;;;;5101604;27;51065;-58
2022/06/22 00:28:34;;;;;;;;;6.00;4.00;;;;;;;;5101351;27;51071;-57
2022/06/22 00:31:30;;;;;;;;;6.00;4.50;;;;;;;;5101609;27;51521;-58
2022/06/22 00:34:17;;;;;;;;;6.50;5.50;;;;;;;;5094634;27;51193;-59
2022/06/22 00:37:04;;;;;;;;;5.75;4.00;;;;;;;;5095370;27;51174;-59
2022/06/22 00:39:51;;;;;;;;;8.75;5.00;;;;;;;;5100375;27;51408;-58
2022/06/22 00:42:41;;;;;;;;;4.00;4.00;;;;;;;;5100752;27;51440;-59
2022/06/22 00:45:26;;;;;;;;;5.50;3.75;;;;;;;;5100861;27;51084;-59
2022/06/22 00:48:26;;;;;;;;;6.75;5.00;;;;;;;;5101093;27;51155;-58
2022/06/22 00:51:16;;;;;;;;;3.75;3.75;;;;;;;;5100572;27;51564;-59
2022/06/22 00:54:02;;;;;;;;;4.25;4.25;;;;;;;;5100578;27;51101;-58
2022/06/22 00:57:06;;;;;;;;;5.00;5.00;;;;;;;;5100469;27;51453;-58
2022/06/22 01:00:00;;;;;;;;;5.75;2.50;;;;;;;;5100544;27;51119;-58
2022/06/22 01:02:53;;;;;;;;;3.75;3.00;;;;;;;;5100287;27;51077;-57
2022/06/22 01:05:40;;;;;;;;;3.75;2.50;;;;;;;;5101182;27;51354;-58
2022/06/22 01:08:24;;;;;;;;;3.75;3.75;;;;;;;;5100884;27;51355;-59
2022/06/22 01:12:16;;;;;;;;;4.00;2.00;;;;;;;;5100393;27;51172;-58
2022/06/22 01:14:23;;;;;;;;;2.00;2.00;;;;;;;;5100724;27;51026;-59
2022/06/22 01:17:12;;;;;;;;;4.50;2.00;;;;;;;;5100294;27;51416;-58
2022/06/22 01:20:09;;;;;;;;;2.00;1.75;;;;;;;;5081728;27;51202;-58
2022/06/22 01:23:12;;;;;;;;;2.25;2.00;;;;;;;;5100740;27;51123;-58
2022/06/22 01:26:08;;;;;;;;;4.00;1.50;;;;;;;;5100333;27;51066;-59
2022/06/22 01:28:54;;;;;;;;;2.25;2.00;;;;;;;;5100747;27;51156;-58
2022/06/22 01:31:42;;;;;;;;;4.50;2.00;;;;;;;;5097187;27;51545;-59
2022/06/22 01:34:31;;;;;;;;;4.00;2.00;;;;;;;;5096838;27;52191;-58
2022/06/22 01:37:18;;;;;;;;;1.75;1.25;;;;;;;;5094862;27;51037;-59
2022/06/22 01:40:11;;;;;;;;;3.00;2.00;;;;;;;;5100917;27;51323;-59
2022/06/22 01:42:57;;;;;;;;;1.00;1.00;;;;;;;;5100209;27;51046;-58
2022/06/22 01:45:52;;;;;;;;;3.50;2.00;;;;;;;;5100171;27;51143;-59
2022/06/22 01:48:39;;;;;;;;;5.75;4.50;;;;;;;;5100025;27;51184;-59
2022/06/22 01:51:36;;;;;;;;;3.00;3.00;;;;;;;;5097122;27;51087;-58
2022/06/22 01:54:25;;;;;;;;;3.75;3.00;;;;;;;;5100652;27;51007;-59
2022/06/22 01:57:30;;;;;;;;;2.00;2.00;;;;;;;;5099959;27;51112;-58
2022/06/22 02:00:16;;;;;;;;;2.00;2.00;;;;;;;;5100185;27;51398;-59
2022/06/22 02:03:16;;;;;;;;;3.25;2.00;;;;;;;;5100136;27;51013;-58
2022/06/22 02:09:21;;;;;;;;;2.25;2.25;;;;;;;;5099802;27;51924;-58
2022/06/22 02:12:20;;;;;;;;;1.50;1.00;;;;;;;;5100172;27;51117;-58
2022/06/22 02:15:13;;;;;;;;;3.50;2.00;;;;;;;;5100339;27;51316;-59
2022/06/22 02:17:57;;;;;;;;;2.75;2.75;;;;;;;;5099710;27;51311;-57
2022/06/22 02:20:42;;;;;;;;;3.50;3.00;;;;;;;;5100165;27;51156;-58
2022/06/22 02:23:35;;;;;;;;;3.00;3.00;;;;;;;;5099886;27;51081;-58
2022/06/22 02:26:30;;;;;;;;;2.50;2.00;;;;;;;;5099757;27;51091;-59
2022/06/22 02:29:16;;;;;;;;;4.50;1.00;;;;;;;;5099851;27;51034;-57
2022/06/22 02:32:04;;;;;;;;;1.00;1.00;;;;;;;;5093156;27;51035;-58
2022/06/22 02:34:49;;;;;;;;;4.00;2.00;;;;;;;;5098929;27;51382;-58
2022/06/22 02:37:37;;;;;;;;;2.00;2.00;;;;;;;;5099040;27;51124;-58
2022/06/22 02:40:27;;;;;;;;;2.00;2.00;;;;;;;;5095698;27;51312;-59
2022/06/22 02:46:16;;;;;;;;;2.00;2.00;;;;;;;;5099634;27;51161;-58
2022/06/22 02:49:02;;;;;;;;;2.75;1.50;;;;;;;;5098994;27;51051;-58
2022/06/22 02:51:48;;;;;;;;;3.25;2.00;;;;;;;;5103349;27;51085;-58
2022/06/22 02:54:35;;;;;;;;;2.50;2.00;;;;;;;;5103202;27;51222;-57
2022/06/22 02:57:43;;;;;;;;;2.50;2.50;;;;;;;;5102848;27;51061;-58
2022/06/22 03:00:35;;;;;;;;;3.75;2.00;;;;;;;;5102687;27;51564;-58
2022/06/22 03:03:20;;;;;;;;;3.00;3.00;;;;;;;;5102844;27;51482;-58
2022/06/22 03:06:08;;;;;;;;;2.50;2.50;;;;;;;;5103248;27;51400;-59
2022/06/22 03:08:53;;;;;;;;;8.75;3.00;;;;;;;;5102441;27;51534;-58
2022/06/22 03:11:39;;;;;;;;;6.75;3.00;;;;;;;;5103129;27;51103;-58
2022/06/22 03:14:26;;;;;;;;;3.50;3.00;;;;;;;;5102788;27;51191;-58
2022/06/22 03:17:13;;;;;;;;;6.00;4.25;;;;;;;;5102429;27;51164;-59
2022/06/22 03:20:03;;;;;;;;;10.50;6.00;;;;;;;;5102517;27;51093;-58
2022/06/22 03:22:50;;;;;;;;;8.25;5.00;;;;;;;;5103055;27;51145;-58
2022/06/22 03:25:34;;;;;;;;;8.50;5.00;;;;;;;;5102397;27;51420;-58
2022/06/22 03:28:32;;;;;;;;;10.50;6.25;;;;;;;;5097705;27;51013;-58
2022/06/22 03:31:20;;;;;;;;;6.00;5.00;;;;;;;;5102799;27;51065;-58
2022/06/22 03:34:09;;;;;;;;;5.50;3.75;;;;;;;;5096010;27;51137;-59
2022/06/22 03:36:56;;;;;;;;;5.25;4.25;;;;;;;;5101409;27;51183;-58
2022/06/22 03:39:44;;;;;;;;;3.50;3.25;;;;;;;;5099077;27;51134;-59
2022/06/22 03:42:33;;;;;;;;;7.25;5.00;;;;;;;;5102299;27;51256;-58
2022/06/22 03:45:29;;;;;;;;;7.00;5.75;;;;;;;;5101785;27;50952;-58
2022/06/22 03:48:22;;;;;;;;;8.00;6.25;;;;;;;;5101683;27;51184;-59
2022/06/22 03:51:13;;;;;;;;;11.25;9.50;;;;;;;;5101923;27;51359;-59
2022/06/22 03:54:00;;;;;;;;;12.75;11.25;;;;;;;;5101682;27;51235;-58
2022/06/22 03:56:48;;;;;;;;;15.25;8.00;;;;;;;;5101714;27;51407;-59
2022/06/22 03:59:35;;;;;;;;;12.75;9.25;;;;;;;;5101911;27;51061;-59
2022/06/22 04:02:19;;;;;;;;;16.25;10.25;;;;;;;;5101947;27;51559;-58
2022/06/22 04:05:04;;;;;;;;;12.50;9.00;;;;;;;;5101783;27;51051;-59
2022/06/22 04:07:49;;;;;;;;;8.50;8.00;;;;;;;;5100823;27;51545;-58
2022/06/22 04:10:58;;;;;;;;;6.25;5.00;;;;;;;;5101262;27;51200;-58
2022/06/22 04:13:44;;;;;;;;;4.00;3.00;;;;;;;;5101980;27;51063;-58
2022/06/22 04:16:37;;;;;;;;;6.75;2.75;;;;;;;;5101495;27;51562;-58
2022/06/22 04:19:25;;;;;;;;;6.75;5.00;;;;;;;;5080943;27;51021;-58
2022/06/22 04:22:19;;;;;;;;;7.50;5.00;;;;;;;;5080748;27;51316;-58
2022/06/22 04:25:26;;;;;;;;;4.00;4.00;;;;;;;;5080308;27;51212;-59
2022/06/22 04:28:14;;;;;;;;;8.00;7.25;;;;;;;;5080045;27;51118;-58
2022/06/22 04:30:59;;;;;;;;;10.50;6.25;;;;;;;;5077846;27;51207;-58
2022/06/22 04:33:49;;;;;;;;;6.00;5.50;;;;;;;;5076511;27;51352;-59
2022/06/22 04:36:39;;;;;;;;;6.00;5.00;;;;;;;;5080654;27;51169;-59
2022/06/22 04:39:36;;;;;;;;;8.25;3.50;;;;;;;;5080143;27;51106;-58
2022/06/22 04:42:21;;;;;;;;;9.75;7.25;;;;;;;;5080941;27;51093;-57
2022/06/22 04:45:05;;;;;;;;;8.75;7.00;;;;;;;;5081013;27;51201;-58
2022/06/22 04:47:49;;;;;;;;;7.25;5.00;;;;;;;;5080715;27;51124;-59
2022/06/22 04:50:36;;;;;;;;;7.25;7.25;;;;;;;;5080643;27;51222;-58
2022/06/22 04:53:28;;;;;;;;;13.00;9.25;;;;;;;;5080999;27;51163;-58
2022/06/22 04:56:19;;;;;;;;;14.25;12.75;;;;;;;;5080839;27;51120;-59
2022/06/22 04:59:04;;;;;;;;;15.25;12.25;;;;;;;;5080762;27;51809;-57
2022/06/22 05:02:06;;;;;;;;;21.25;14.00;;;;;;;;5080280;27;51100;-58
2022/06/22 05:04:52;;;;;;;;;17.75;13.25;;;;;;;;5077952;27;51166;-59
2022/06/22 05:07:50;;;;;;;;;17.00;14.25;;;;;;;;5080274;27;51615;-58
2022/06/22 05:10:53;;;;;;;;;20.00;17.00;;;;;;;;5080435;27;51177;-58
2022/06/22 05:13:42;;;;;;;;;18.25;17.25;;;;;;;;5079745;27;51074;-59
2022/06/22 05:16:30;;;;;;;;;15.75;10.25;;;;;;;;5080154;27;52120;-59
2022/06/22 05:19:15;;;;;;;;;18.50;16.00;;;;;;;;5080574;27;51156;-58
2022/06/22 05:21:59;;;;;;;;;18.75;15.25;;;;;;;;5080073;27;51022;-58
2022/06/22 05:24:47;;;;;;;;;10.00;9.50;;;;;;;;5080410;27;51173;-57
2022/06/22 05:27:53;;;;;;;;;8.50;5.75;;;;;;;;5079767;27;51191;-58
2022/06/22 05:30:47;;;;;;;;;11.00;9.75;;;;;;;;5080293;27;50967;-58
2022/06/22 05:33:33;;;;;;;;;14.25;9.75;;;;;;;;5070529;27;51568;-58
2022/06/22 05:36:20;;;;;;;;;14.00;11.25;;;;;;;;5079925;27;51058;-58
2022/06/22 05:39:05;;;;;;;;;16.50;10.00;;;;;;;;5079512;27;51409;-58
2022/06/22 05:41:50;;;;;;;;;15.50;12.00;;;;;;;;5079145;27;51143;-58
2022/06/22 05:44:35;;;;;;;;;13.50;13.00;;;;;;;;5080022;27;51044;-59
2022/06/22 05:47:23;;;;;;;;;19.50;14.25;;;;;;;;5079758;27;51124;-59
2022/06/22 05:50:15;;;;;;;;;19.00;17.50;;;;;;;;5078582;27;51502;-58
2022/06/22 05:53:03;;;;;;;;;27.50;21.25;;;;;;;;5079337;27;51150;-58
2022/06/22 05:56:07;;;;;;;;;32.25;25.75;;;;;;;;5080104;27;51039;-58
2022/06/22 05:58:55;;;;;;;;;19.50;14.75;;;;;;;;5079376;27;51311;-58
2022/06/22 06:01:39;;;;;;;;;15.50;10.50;;;;;;;;5079632;27;51154;-58
2022/06/22 06:04:39;;;;;;;;;14.25;11.00;;;;;;;;5074583;27;51006;-58
2022/06/22 06:07:37;;;;;;;;;14.25;10.00;;;;;;;;5079654;27;51177;-58
2022/06/22 06:10:38;;;;;;;;;13.50;10.75;;;;;;;;5079173;27;52014;-58
2022/06/22 06:13:34;;;;;;;;;11.00;9.75;;;;;;;;5079197;28;51135;-59
2022/06/22 06:16:38;;;;;;;;;13.00;9.75;;;;;;;;5079711;28;51577;-58
2022/06/22 06:19:25;;;;;;;;;15.25;14.00;;;;;;;;5055395;27;51108;-58
2022/06/22 06:22:10;;;;;;;;;20.75;16.50;;;;;;;;5079435;28;51341;-58
2022/06/22 06:28:05;;;;;;;;;16.25;15.25;;;;;;;;5083372;27;51061;-58
2022/06/22 06:30:52;;;;;;;;;13.00;11.75;;;;;;;;5083804;27;51133;-58
2022/06/22 06:33:38;;;;;;;;;14.00;12.25;;;;;;;;5076346;27;52391;-58
2022/06/22 06:36:31;;;;;;;;;9.50;9.00;;;;;;;;5082767;27;51620;-58
2022/06/22 06:39:20;;;;;;;;;9.75;8.00;;;;;;;;5083416;27;51163;-59
2022/06/22 06:42:17;;;;;;;;;14.75;13.25;;;;;;;;5083275;27;51210;-58
2022/06/22 06:45:03;;;;;;;;;11.50;10.50;;;;;;;;5083032;27;51622;-59
2022/06/22 06:47:52;;;;;;;;;15.00;13.75;;;;;;;;5083552;27;51495;-59
2022/06/22 06:50:40;;;;;;;;;16.25;13.00;;;;;;;;5082906;27;51337;-58
2022/06/22 06:53:31;;;;;;;;;17.75;12.75;;;;;;;;5082810;27;51293;-59
2022/06/22 06:56:18;;;;;;;;;14.00;14.00;;;;;;;;5083192;27;51055;-58
2022/06/22 06:59:04;;;;;;;;;16.25;16.00;;;;;;;;5082973;27;51036;-59
2022/06/22 07:01:49;;;;;;;;;17.75;17.00;;;;;;;;5082654;27;51489;-58
2022/06/22 07:04:34;;;;;;;;;23.50;21.25;;;;;;;;5082280;27;51101;-58
2022/06/22 07:07:26;;;;;;;;;26.00;22.75;;;;;;;;5082706;27;51101;-58
2022/06/22 07:10:19;;;;;;;;;23.25;21.50;;;;;;;;5082203;27;51115;-58
2022/06/22 07:13:12;;;;;;;;;23.75;21.75;;;;;;;;5082679;27;51169;-57
2022/06/22 07:15:57;;;;;;;;;20.25;17.75;;;;;;;;5080577;27;51024;-58
2022/06/22 07:18:48;;;;;;;;;26.25;22.75;;;;;;;;5092639;27;51090;-58
2022/06/22 07:21:38;;;;;;;;;21.50;18.75;;;;;;;;5102887;27;51356;-58
2022/06/22 07:24:26;;;;;;;;;20.50;19.50;;;;;;;;5103181;27;51105;-57
2022/06/22 07:27:29;;;;;;;;;18.50;16.75;;;;;;;;5099367;27;51514;-58
2022/06/22 07:30:21;;;;;;;;;16.25;16.25;;;;;;;;5103232;27;51558;-57
2022/06/22 07:33:17;;;;;;;;;18.00;17.25;;;;;;;;5094807;27;51168;-57
2022/06/22 07:36:01;;;;;;;;;24.75;21.50;;;;;;;;5100911;27;51164;-57
2022/06/22 07:39:01;;;;;;;;;17.00;13.50;;;;;;;;5102635;27;51066;-57
2022/06/22 07:41:45;;;;;;;;;19.25;13.75;;;;;;;;5101639;27;51154;-58
2022/06/22 07:44:31;;;;;;;;;16.50;16.25;;;;;;;;5102433;27;51080;-58
2022/06/22 07:47:36;;;;;;;;;17.75;16.75;;;;;;;;5097386;27;51000;-57
2022/06/22 07:50:25;;;;;;;;;16.75;15.50;;;;;;;;5100320;27;51054;-58
2022/06/22 07:53:17;;;;;;;;;15.75;15.75;;;;;;;;5100282;27;51529;-58
2022/06/22 07:56:02;;;;;;;;;16.25;16.00;;;;;;;;5083456;27;51093;-57
2022/06/22 07:58:50;;;;;;;;;14.00;14.00;;;;;;;;5102196;27;51292;-58
2022/06/22 08:01:37;;;;;;;;;11.50;8.75;;;;;;;;5101528;27;51204;-58
2022/06/22 08:04:39;;;;;;;;;14.75;11.75;;;;;;;;5101793;27;51136;-58
2022/06/22 08:07:25;;;;;;;;;14.25;13.50;;;;;;;;5098231;27;51634;-57
2022/06/22 08:10:12;;;;;;;;;19.00;16.00;;;;;;;;5100082;27;51130;-58
2022/06/22 08:12:59;;;;;;;;;15.50;13.50;;;;;;;;5100882;27;51100;-58
2022/06/22 08:15:47;;;;;;;;;10.25;7.50;;;;;;;;5099892;27;51203;-57
2022/06/22 08:18:31;;;;;;;;;8.50;7.75;;;;;;;;5100207;27;51482;-58
2022/06/22 08:21:18;;;;;;;;;12.75;11.75;;;;;;;;5100453;27;51331;-57
2022/06/22 08:24:03;;;;;;;;;15.50;13.75;;;;;;;;5100946;27;51300;-57
2022/06/22 08:26:50;;;;;;;;;12.50;12.50;;;;;;;;5101232;27;51154;-58
2022/06/22 08:29:34;;;;;;;;;13.50;13.00;;;;;;;;5101810;27;51150;-58
2022/06/22 08:32:23;;;;;;;;;24.00;23.50;;;;;;;;5093035;27;51097;-57
2022/06/22 08:35:12;;;;;;;;;23.75;21.50;;;;;;;;5101328;27;51046;-58
2022/06/22 08:37:56;;;;;;;;;25.50;23.50;;;;;;;;5101291;27;51106;-58
2022/06/22 08:40:40;;;;;;;;;21.25;20.50;;;;;;;;5095474;27;51054;-57
2022/06/22 08:43:42;;;;;;;;;24.75;21.50;;;;;;;;5100797;27;54106;-56
2022/06/22 08:46:26;;;;;;;;;23.50;20.75;;;;;;;;5100338;27;51152;-57
2022/06/22 08:49:13;;;;;;;;;20.50;16.00;;;;;;;;5101295;27;51123;-57
2022/06/22 08:52:16;;;;;;;;;19.50;18.00;;;;;;;;5094836;27;51078;-57
2022/06/22 08:55:08;;;;;;;;;19.75;16.00;;;;;;;;5101450;27;51053;-57
2022/06/22 08:58:07;;;;;;;;;18.50;16.00;;;;;;;;5097028;27;51195;-57
2022/06/22 09:00:54;;;;;;;;;18.50;16.50;;;;;;;;5096329;27;51071;-58
2022/06/22 09:03:54;;;;;;;;;18.00;18.00;;;;;;;;5083895;27;51218;-58
2022/06/22 09:06:57;;;;;;;;;17.75;16.50;;;;;;;;5069441;27;51151;-57
2022/06/22 09:10:04;;;;;;;;;17.50;16.00;;;;;;;;5098430;27;51349;-58
2022/06/22 09:12:48;;;;;;;;;11.00;9.25;;;;;;;;5096543;27;51088;-56
2022/06/22 09:15:47;;;;;;;;;13.00;9.75;;;;;;;;5100517;27;51086;-57
2022/06/22 09:18:40;;;;;;;;;12.75;10.75;;;;;;;;5098267;27;51112;-57
2022/06/22 09:21:31;;;;;;;;;6.00;6.00;;;;;;;;5097151;27;51521;-57
2022/06/22 09:24:15;;;;;;;;;7.00;7.00;;;;;;;;5100070;27;51079;-52
2022/06/22 09:27:12;;;;;;;;;7.75;7.00;;;;;;;;5100473;27;51122;-52
2022/06/22 09:30:06;;;;;;;;;9.00;9.00;;;;;;;;5100049;27;51113;-54
2022/06/22 09:33:01;;;;;;;;;12.00;10.75;;;;;;;;5100383;27;51109;-53
2022/06/22 09:35:51;;;;;;;;;7.50;7.50;;;;;;;;5099927;27;51632;-52
2022/06/22 09:38:39;;;;;;;;;11.00;11.00;;;;;;;;5100328;27;51144;-53
2022/06/22 09:41:44;;;;;;;;;11.25;10.25;;;;;;;;5097547;27;51154;-52
2022/06/22 09:44:53;;;;;;;;;10.75;10.25;;;;;;;;5096046;27;51090;-53
2022/06/22 09:47:53;;;;;;;;;14.75;10.75;;;;;;;;5099444;27;51106;-54
2022/06/22 09:50:57;;;;;;;;;14.25;10.50;;;;;;;;5096177;27;51205;-50
2022/06/22 09:57:51;;;;;;;;;19.50;15.50;;;;;;;;5094988;27;51267;-52
2022/06/22 10:01:03;;;;;;;;;13.25;11.75;;;;;;;;5075505;27;51700;-51
2022/06/22 10:04:06;;;;;;;;;16.25;13.75;;;;;;;;5095747;27;51373;-53
2022/06/22 10:07:21;;;;;;;;;13.00;13.00;;;;;;;;5097224;27;51198;-54
2022/06/22 10:10:24;;;;;;;;;15.25;12.00;;;;;;;;5099531;27;51355;-52
2022/06/22 10:13:22;;;;;;;;;19.00;17.00;;;;;;;;5090596;27;51123;-54
2022/06/22 10:16:13;;;;;;;;;18.25;17.25;;;;;;;;5098924;27;51067;-54
2022/06/22 10:19:01;;;;;;;;;21.00;16.75;;;;;;;;5099505;27;51153;-52
2022/06/22 10:22:10;;;;;;;;;19.75;17.25;;;;;;;;5099051;27;51091;-54
2022/06/22 10:24:58;;;;;;;;;23.75;18.75;;;;;;;;5099222;27;52139;-52
2022/06/22 10:28:02;;;;;;;;;19.50;19.50;;;;;;;;5099584;27;50991;-53
2022/06/22 10:31:25;;;;;;;;;20.75;19.75;;;;;;;;5093170;27;51422;-53
2022/06/22 10:34:48;;;;;;;;;21.25;19.00;;;;;;;;5010335;28;51171;-55
2022/06/22 10:37:52;;;;;;;;;21.25;19.00;;;;;;;;5006189;28;51391;-54
2022/06/22 10:47:29;;;;;;;;;18.00;18.00;;;;;;;;5099224;27;51184;-52
2022/06/22 10:50:25;;;;;;;;;21.75;21.00;;;;;;;;5099583;27;51149;-52
2022/06/22 10:53:43;;;;;;;;;23.50;21.00;;;;;;;;5099574;27;51090;-54
2022/06/22 10:56:48;;;;;;;;;23.25;17.50;;;;;;;;5099548;27;50952;-53
2022/06/22 10:59:52;;;;;;;;;20.00;16.50;;;;;;;;5099249;27;51437;-54
2022/06/22 11:02:39;;;;;;;;;26.00;23.25;;;;;;;;5093090;27;51125;-54
2022/06/22 11:05:42;;;;;;;;;22.25;20.50;;;;;;;;5099311;27;51502;-54
2022/06/22 11:08:44;;;;;;;;;20.75;18.25;;;;;;;;5098969;27;51073;-49
2022/06/22 11:11:39;;;;;;;;;23.50;19.00;;;;;;;;5102257;27;51180;-52
2022/06/22 11:14:42;;;;;;;;;21.75;21.00;;;;;;;;5102876;27;51471;-54
2022/06/22 11:17:58;;;;;;;;;18.50;18.00;;;;;;;;5102519;27;51659;-51
2022/06/22 11:21:06;;;;;;;;;23.00;21.25;;;;;;;;5019057;28;51070;-54
2022/06/22 11:24:08;;;;;;;;;20.75;18.25;;;;;;;;5063535;27;51302;-53
2022/06/22 11:30:51;;;;;;;;;17.00;16.50;;;;;;;;5078046;27;51178;-54
2022/06/22 11:33:55;;;;;;;;;20.25;18.50;;;;;;;;5102969;27;51479;-52
2022/06/22 11:37:04;;;;;;;;;23.25;19.00;;;;;;;;5103427;27;51124;-53
2022/06/22 11:40:23;;;;;;;;;23.00;19.00;;;;;;;;5102781;27;51694;-54
2022/06/22 11:43:39;;;;;;;;;26.00;20.00;;;;;;;;5096499;27;51093;-53
2022/06/22 11:46:26;;;;;;;;;20.25;19.00;;;;;;;;5020041;28;51702;-53
2022/06/22 11:49:29;;;;;;;;;18.50;16.50;;;;;;;;5018209;28;51160;-54
2022/06/22 11:52:33;;;;;;;;;18.00;17.00;;;;;;;;5019216;28;51081;-53
2022/06/22 11:55:24;;;;;;;;;21.00;19.75;;;;;;;;5018507;28;51584;-53
2022/06/22 11:58:33;;;;;;;;;21.00;19.00;;;;;;;;5018772;28;51665;-53
2022/06/22 12:01:36;;;;;;;;;24.50;23.00;;;;;;;;5018453;28;51239;-55
2022/06/22 12:04:20;;;;;;;;;20.00;18.75;;;;;;;;5100286;27;51460;-51
2022/06/22 12:07:24;;;;;;;;;26.50;23.50;;;;;;;;5099685;27;51196;-54
2022/06/22 12:10:09;;;;;;;;;21.50;20.00;;;;;;;;5100677;27;51388;-54
2022/06/22 12:13:23;;;;;;;;;21.00;19.50;;;;;;;;5100208;27;51158;-52
2022/06/22 12:16:36;;;;;;;;;24.50;24.50;;;;;;;;5017329;28;51259;-51
2022/06/22 12:19:45;;;;;;;;;25.25;24.50;;;;;;;;5017656;28;51216;-52
2022/06/22 12:22:38;;;;;;;;;28.25;25.25;;;;;;;;5012559;28;51163;-53
2022/06/22 12:25:41;;;;;;;;;30.25;29.25;;;;;;;;5022505;27;51149;-51
2022/06/22 12:28:51;;;;;;;;;26.25;25.75;;;;;;;;5080384;27;51209;-54
2022/06/22 12:31:39;;;;;;;;;31.75;27.00;;;;;;;;5078204;27;51191;-52
2022/06/22 12:34:40;;;;;;;;;26.00;24.75;;;;;;;;5080036;27;51171;-53
2022/06/22 12:37:31;;;;;;;;;33.50;29.00;;;;;;;;5080695;27;51548;-53
2022/06/22 12:40:22;;;;;;;;;28.00;26.50;;;;;;;;5080703;27;51506;-53
2022/06/22 12:43:07;;;;;;;;;30.50;30.00;;;;;;;;5080537;27;51172;-52
2022/06/22 12:46:16;;;;;;;;;29.50;29.25;;;;;;;;5080194;27;51185;-51
2022/06/22 12:49:12;;;;;;;;;27.75;23.75;;;;;;;;5080668;27;51540;-52
2022/06/22 12:52:08;;;;;;;;;26.50;25.25;;;;;;;;5080844;27;51163;-52
2022/06/22 12:55:02;;;;;;;;;27.25;25.75;;;;;;;;5075505;27;51067;-53
2022/06/22 12:57:51;;;;;;;;;36.50;30.25;;;;;;;;5080435;27;51130;-52
2022/06/22 13:00:37;;;;;;;;;27.75;26.25;;;;;;;;5080936;27;51105;-54
2022/06/22 13:03:44;;;;;;;;;27.00;24.75;;;;;;;;5077408;27;51087;-52
2022/06/22 13:06:30;;;;;;;;;23.00;22.25;;;;;;;;5080527;27;51627;-51
2022/06/22 13:09:34;;;;;;;;;23.25;20.25;;;;;;;;5080592;27;51223;-54
2022/06/22 13:12:44;;;;;;;;;22.00;21.75;;;;;;;;5080781;27;51115;-50
2022/06/22 13:15:39;;;;;;;;;15.75;14.75;;;;;;;;5080007;27;51145;-53
2022/06/22 13:18:34;;;;;;;;;20.75;17.50;;;;;;;;5085728;27;51050;-52
2022/06/22 13:21:37;;;;;;;;;16.00;16.00;;;;;;;;5100941;27;51054;-54
2022/06/22 13:24:33;;;;;;;;;11.00;10.25;;;;;;;;5100547;27;51484;-52
2022/06/22 13:27:24;;;;;;;;;11.00;10.50;;;;;;;;5100935;27;51165;-51
2022/06/22 13:30:42;;;;;;;;;9.50;8.00;;;;;;;;5100726;27;51367;-54
2022/06/22 13:33:44;;;;;;;;;7.00;7.00;;;;;;;;5065162;27;51341;-53
2022/06/22 13:36:36;;;;;;;;;5.50;5.00;;;;;;;;5100623;27;51382;-53
2022/06/22 13:39:39;;;;;;;;;6.00;4.25;;;;;;;;5100678;27;50953;-54
2022/06/22 13:42:42;;;;;;;;;4.50;4.50;;;;;;;;5100436;27;51344;-51
2022/06/22 13:45:48;;;;;;;;;4.75;3.00;;;;;;;;5100413;27;51046;-52
2022/06/22 13:49:11;;;;;;;;;2.75;2.75;;;;;;;;5100053;27;51368;-53
2022/06/22 13:52:15;;;;;;;;;4.00;2.25;;;;;;;;5099922;27;51054;-54
2022/06/22 13:55:13;;;;;;;;;3.00;3.00;;;;;;;;5100319;27;51096;-54
2022/06/22 13:58:16;;;;;;;;;2.00;1.75;;;;;;;;5099866;27;51513;-54
2022/06/22 14:01:22;;;;;;;;;2.25;2.25;;;;;;;;5100050;27;51026;-53
2022/06/22 14:04:18;;;;;;;;;3.00;1.75;;;;;;;;5077840;27;51600;-53
2022/06/22 14:07:12;;;;;;;;;2.75;2.75;;;;;;;;5098716;27;52270;-52
2022/06/22 14:10:19;;;;;;;;;1.75;1.75;;;;;;;;5099187;27;51006;-52
2022/06/22 14:13:06;;;;;;;;;2.75;0.75;;;;;;;;5099306;27;51086;-53
2022/06/22 14:16:12;;;;;;;;;2.75;1.50;;;;;;;;5095035;27;51401;-54
2022/06/22 14:18:56;;;;;;;;;3.25;2.00;;;;;;;;5099141;27;51055;-52
2022/06/22 14:21:46;;;;;;;;;0.75;0.75;;;;;;;;5099917;27;51308;-50
2022/06/22 14:24:47;;;;;;;;;5.50;1.75;;;;;;;;5099303;27;51062;-51
2022/06/22 14:27:37;;;;;;;;;2.75;1.75;;;;;;;;5099492;27;51469;-52
2022/06/22 14:30:37;;;;;;;;;1.00;1.00;;;;;;;;5099305;27;51107;-54
2022/06/22 14:33:38;;;;;;;;;1.00;1.00;;;;;;;;5099550;27;51042;-52
2022/06/22 14:36:35;;;;;;;;;2.50;2.00;;;;;;;;5099501;27;51417;-54
2022/06/22 14:39:38;;;;;;;;;5.25;2.75;;;;;;;;5099232;27;51086;-52
2022/06/22 14:42:37;;;;;;;;;7.25;4.00;;;;;;;;5099223;27;51166;-53
2022/06/22 14:45:36;;;;;;;;;3.25;2.00;;;;;;;;5084417;27;51213;-54
2022/06/22 14:48:28;;;;;;;;;1.50;1.50;;;;;;;;5103563;27;51088;-53
2022/06/22 14:51:32;;;;;;;;;4.50;2.75;;;;;;;;5102706;27;51094;-54
2022/06/22 14:54:38;;;;;;;;;2.75;2.75;;;;;;;;5103411;27;51364;-53
2022/06/22 14:57:28;;;;;;;;;3.00;2.25;;;;;;;;5102883;27;51503;-50
2022/06/22 15:00:18;;;;;;;;;3.00;3.00;;;;;;;;5103688;27;51134;-52
2022/06/22 15:03:25;;;;;;;;;2.50;2.50;;;;;;;;5102939;27;51778;-54
2022/06/22 15:06:35;;;;;;;;;4.00;4.00;;;;;;;;5098342;27;51062;-54
2022/06/22 15:09:44;;;;;;;;;3.00;3.00;;;;;;;;5102856;27;51351;-53
2022/06/22 15:15:53;;;;;;;;;4.00;3.00;;;;;;;;5098152;27;51077;-50
2022/06/22 15:18:47;;;;;;;;;3.50;3.25;;;;;;;;5102867;27;51641;-53
2022/06/22 15:21:52;;;;;;;;;3.75;3.00;;;;;;;;5103397;27;51138;-53
2022/06/22 15:24:52;;;;;;;;;4.50;4.50;;;;;;;;5103332;27;51144;-50
2022/06/22 15:27:39;;;;;;;;;4.00;4.00;;;;;;;;5101816;27;51272;-53
2022/06/22 15:30:43;;;;;;;;;9.00;5.75;;;;;;;;5099742;27;51068;-52
2022/06/22 15:33:31;;;;;;;;;6.00;6.00;;;;;;;;5103114;27;51177;-51
2022/06/22 15:36:27;;;;;;;;;6.25;5.00;;;;;;;;5102902;27;51450;-51
2022/06/22 15:39:30;;;;;;;;;5.75;4.50;;;;;;;;5102824;27;51192;-52
2022/06/22 15:42:46;;;;;;;;;9.75;6.75;;;;;;;;5102967;27;51118;-49
2022/06/22 15:45:42;;;;;;;;;9.50;6.00;;;;;;;;5087132;27;51018;-53
2022/06/22 15:48:46;;;;;;;;;6.00;6.00;;;;;;;;5102773;27;51296;-51
2022/06/22 15:51:50;;;;;;;;;9.25;6.00;;;;;;;;5102711;27;51107;-52
2022/06/22 15:54:38;;;;;;;;;6.75;5.75;;;;;;;;5087523;27;51214;-51
2022/06/22 16:04:20;;;;;;;;;9.50;7.75;;;;;;;;5102451;27;51064;-53
2022/06/22 16:07:21;;;;;;;;;8.50;7.00;;;;;;;;5102462;27;51166;-51
2022/06/22 16:10:24;;;;;;;;;9.75;7.00;;;;;;;;5086776;27;51070;-52
2022/06/22 16:13:32;;;;;;;;;9.50;7.50;;;;;;;;5103137;27;51088;-51
2022/06/22 16:16:27;;;;;;;;;6.00;6.00;;;;;;;;5102184;27;51381;-54
2022/06/22 16:19:20;;;;;;;;;9.00;7.00;;;;;;;;5095749;27;51465;-51
2022/06/22 16:22:18;;;;;;;;;8.00;6.25;;;;;;;;5099345;27;51248;-52
2022/06/22 16:25:23;;;;;;;;;11.75;7.25;;;;;;;;5101305;27;51210;-52
2022/06/22 16:28:23;;;;;;;;;11.75;7.00;;;;;;;;5100752;27;51390;-52
2022/06/22 16:31:47;;;;;;;;;7.00;6.00;;;;;;;;5101337;27;51483;-52
2022/06/22 16:34:46;;;;;;;;;9.75;7.25;;;;;;;;5101128;27;51168;-50
2022/06/22 16:37:37;;;;;;;;;9.75;9.00;;;;;;;;5094824;27;51134;-51
2022/06/22 16:40:30;;;;;;;;;7.50;6.00;;;;;;;;5101617;27;51204;-54
2022/06/22 16:43:26;;;;;;;;;9.00;6.00;;;;;;;;5102034;27;51402;-49
2022/06/22 16:46:22;;;;;;;;;6.50;5.00;;;;;;;;5082943;27;51042;-53
2022/06/22 16:49:11;;;;;;;;;9.50;6.25;;;;;;;;5101508;27;50992;-52
2022/06/22 16:51:58;;;;;;;;;8.75;8.75;;;;;;;;5101208;27;51505;-52
2022/06/22 16:54:53;;;;;;;;;10.00;6.50;;;;;;;;5101202;27;51086;-53
2022/06/22 16:57:50;;;;;;;;;10.75;7.25;;;;;;;;5100944;27;51420;-51
2022/06/22 17:00:58;;;;;;;;;9.00;7.25;;;;;;;;5101006;27;51137;-52
2022/06/22 17:04:18;;;;;;;;;6.00;6.00;;;;;;;;5100968;27;51145;-51
2022/06/22 17:07:09;;;;;;;;;6.25;6.25;;;;;;;;5100036;27;51251;-51
2022/06/22 17:10:13;;;;;;;;;9.50;8.00;;;;;;;;5100592;27;51020;-53
2022/06/22 17:13:04;;;;;;;;;12.25;8.00;;;;;;;;5100691;27;51495;-51
2022/06/22 17:15:59;;;;;;;;;10.25;9.75;;;;;;;;5082242;27;51163;-52
2022/06/22 17:18:48;;;;;;;;;13.50;12.00;;;;;;;;5092267;27;51143;-51
2022/06/22 17:21:43;;;;;;;;;17.00;12.75;;;;;;;;5100128;27;51182;-53
2022/06/22 17:24:32;;;;;;;;;19.75;14.50;;;;;;;;5100964;27;51268;-49
2022/06/22 17:27:52;;;;;;;;;11.50;10.75;;;;;;;;5100687;27;51048;-50
2022/06/22 17:30:43;;;;;;;;;19.50;12.75;;;;;;;;5100652;27;51212;-51
2022/06/22 17:33:27;;;;;;;;;16.50;12.50;;;;;;;;5098445;27;51009;-49
2022/06/22 17:36:24;;;;;;;;;12.50;11.75;;;;;;;;5100299;27;51504;-52
2022/06/22 17:39:27;;;;;;;;;13.25;9.50;;;;;;;;5100482;27;51165;-51
2022/06/22 17:42:16;;;;;;;;;12.50;11.50;;;;;;;;5100529;27;50999;-50
2022/06/22 17:45:21;;;;;;;;;12.00;9.75;;;;;;;;5100094;27;51519;-52